createdAt,value
2018-10-21T00:00:34.170Z,-0.13
2018-10-21T00:03:03.479Z,-0.10
2018-10-21T00:05:32.473Z,-0.07
2018-10-21T00:08:01.817Z,-0.06
2018-10-21T00:10:30.951Z,-0.03
2018-10-21T00:13:00.016Z,-0.02
2018-10-21T00:15:29.293Z,0.03
2018-10-21T00:17:58.470Z,0.04
2018-10-21T00:20:27.833Z,0.08
2018-10-21T00:22:57.132Z,0.09
2018-10-21T00:25:26.061Z,0.12
2018-10-21T00:27:54.961Z,0.16
2018-10-21T00:30:24.275Z,0.18
2018-10-21T00:32:53.517Z,0.23
2018-10-21T00:35:22.442Z,0.27
2018-10-21T00:37:51.738Z,0.37
2018-10-21T00:40:20.678Z,0.57
2018-10-21T00:42:49.791Z,0.83
2018-10-21T00:45:19.147Z,1.07
2018-10-21T00:47:48.371Z,1.34
2018-10-21T00:50:17.526Z,1.45
2018-10-21T00:52:46.325Z,1.70
2018-10-21T00:55:15.204Z,1.83
2018-10-21T00:57:43.885Z,1.88
2018-10-21T01:00:14.070Z,1.97
2018-10-21T01:02:43.220Z,2.05
2018-10-21T01:05:12.570Z,2.12
2018-10-21T01:07:41.708Z,2.24
2018-10-21T01:10:11.843Z,2.34
2018-10-21T01:12:41.441Z,2.38
2018-10-21T01:15:11.999Z,2.41
2018-10-21T01:17:40.821Z,2.45
2018-10-21T01:20:11.825Z,2.45
2018-10-21T01:22:41.104Z,2.41
2018-10-21T01:25:10.573Z,2.35
2018-10-21T01:27:40.555Z,2.33
2018-10-21T01:30:10.781Z,2.38
2018-10-21T01:32:39.664Z,2.42
2018-10-21T01:35:08.940Z,2.47
2018-10-21T01:37:38.248Z,2.47
2018-10-21T01:40:41.963Z,2.48
2018-10-21T01:43:12.395Z,2.51
2018-10-21T01:45:41.960Z,2.53
2018-10-21T01:48:12.000Z,2.58
2018-10-21T01:50:41.293Z,2.60
2018-10-21T01:53:11.338Z,2.65
2018-10-21T01:55:40.620Z,2.68
2018-10-21T01:58:09.759Z,2.73
2018-10-21T02:00:39.574Z,2.80
2018-10-21T02:03:08.463Z,2.86
2018-10-21T02:05:37.921Z,2.71
2018-10-21T02:08:06.939Z,2.93
2018-10-21T02:10:36.147Z,3.00
2018-10-21T02:13:05.028Z,3.04
2018-10-21T02:15:34.130Z,3.07
2018-10-21T02:18:03.195Z,3.10
2018-10-21T02:20:32.046Z,3.16
2018-10-21T02:23:01.107Z,3.17
2018-10-21T02:25:30.035Z,3.19
2018-10-21T02:27:59.136Z,3.21
2018-10-21T02:30:29.106Z,3.25
2018-10-21T02:32:58.647Z,3.31
2018-10-21T02:35:27.508Z,3.35
2018-10-21T02:37:57.184Z,3.38
2018-10-21T02:41:37.811Z,3.43
2018-10-21T02:44:08.206Z,3.47
2018-10-21T02:46:37.795Z,3.50
2018-10-21T02:49:07.406Z,3.60
2018-10-21T02:51:36.316Z,3.65
2018-10-21T02:54:05.717Z,3.70
2018-10-21T02:56:34.798Z,3.75
2018-10-21T02:59:03.765Z,3.81
2018-10-21T03:01:32.801Z,3.85
2018-10-21T03:04:01.882Z,3.91
2018-10-21T03:06:30.774Z,3.94
2018-10-21T03:08:59.938Z,3.97
2018-10-21T03:11:28.739Z,4.02
2018-10-21T03:13:57.923Z,4.07
2018-10-21T03:16:26.717Z,4.10
2018-10-21T03:18:55.628Z,4.12
2018-10-21T03:21:24.610Z,4.17
2018-10-21T03:23:54.663Z,4.24
2018-10-21T03:26:23.555Z,4.28
2018-10-21T03:28:52.417Z,4.37
2018-10-21T03:31:22.156Z,4.46
2018-10-21T03:33:51.238Z,4.55
2018-10-21T03:36:20.222Z,4.57
2018-10-21T03:38:48.977Z,4.62
2018-10-21T03:41:17.852Z,4.63
2018-10-21T03:43:46.680Z,4.65
2018-10-21T03:46:16.392Z,4.67
2018-10-21T03:48:45.238Z,4.72
2018-10-21T03:51:14.448Z,4.76
2018-10-21T03:53:43.399Z,4.77
2018-10-21T03:56:12.709Z,4.77
2018-10-21T03:58:41.411Z,4.82
2018-10-21T04:01:10.434Z,4.86
2018-10-21T04:03:39.439Z,4.89
2018-10-21T04:06:08.464Z,4.95
2018-10-21T04:08:37.235Z,4.99
2018-10-21T04:11:06.198Z,5.04
2018-10-21T04:13:35.167Z,5.08
2018-10-21T04:16:04.178Z,5.08
2018-10-21T04:18:33.117Z,5.11
2018-10-21T04:21:02.114Z,5.17
2018-10-21T04:23:31.138Z,5.20
2018-10-21T04:26:00.286Z,5.24
2018-10-21T04:28:29.351Z,5.27
2018-10-21T04:30:58.540Z,5.30
2018-10-21T04:33:42.941Z,5.35
2018-10-21T04:36:14.067Z,5.45
2018-10-21T04:38:54.164Z,5.51
2018-10-21T04:41:23.028Z,5.59
2018-10-21T04:43:51.826Z,5.65
2018-10-21T04:46:20.960Z,5.70
2018-10-21T04:48:49.947Z,5.75
2018-10-21T04:51:18.957Z,5.77
2018-10-21T04:53:48.029Z,5.82
2018-10-21T04:56:17.243Z,5.89
2018-10-21T04:58:46.067Z,5.93
2018-10-21T05:01:15.111Z,6.00
2018-10-21T05:03:44.086Z,6.08
2018-10-21T05:06:13.002Z,6.11
2018-10-21T05:08:42.176Z,6.14
2018-10-21T05:11:11.124Z,6.20
2018-10-21T05:13:40.100Z,6.32
2018-10-21T05:16:08.901Z,6.41
2018-10-21T05:18:37.755Z,6.47
2018-10-21T05:21:06.792Z,6.50
2018-10-21T05:23:35.726Z,6.57
2018-10-21T05:26:04.477Z,6.58
2018-10-21T05:28:33.498Z,6.63
2018-10-21T05:31:02.885Z,6.60
2018-10-21T05:33:31.624Z,6.58
2018-10-21T05:36:00.542Z,6.61
2018-10-21T05:38:29.320Z,6.60
2018-10-21T05:40:58.145Z,6.65
2018-10-21T05:43:27.044Z,6.68
2018-10-21T05:45:55.879Z,6.68
2018-10-21T05:48:24.999Z,6.67
2018-10-21T05:50:53.829Z,6.69
2018-10-21T05:53:22.915Z,6.74
2018-10-21T05:55:51.579Z,6.77
2018-10-21T05:58:20.721Z,6.79
2018-10-21T06:00:49.313Z,6.78
2018-10-21T06:03:18.212Z,6.76
2018-10-21T06:05:48.303Z,6.72
2018-10-21T06:08:17.275Z,6.67
2018-10-21T06:10:46.288Z,6.68
2018-10-21T06:13:15.244Z,6.70
2018-10-21T06:15:44.517Z,6.69
2018-10-21T06:18:17.820Z,6.65
2018-10-21T06:20:50.815Z,6.58
2018-10-21T06:23:19.615Z,6.52
2018-10-21T06:25:48.814Z,6.50
2018-10-21T06:28:17.921Z,6.49
2018-10-21T06:30:47.062Z,6.47
2018-10-21T06:33:16.231Z,6.45
2018-10-21T06:35:45.640Z,6.44
2018-10-21T06:38:15.158Z,6.47
2018-10-21T06:40:44.228Z,6.47
2018-10-21T06:43:13.072Z,6.49
2018-10-21T06:45:42.163Z,6.51
2018-10-21T06:48:11.127Z,6.53
2018-10-21T06:50:40.245Z,6.56
2018-10-21T06:53:09.212Z,6.58
2018-10-21T06:55:38.310Z,6.57
2018-10-21T06:58:07.280Z,6.60
2018-10-21T07:00:36.196Z,6.63
2018-10-21T07:03:05.557Z,6.65
2018-10-21T07:06:23.098Z,6.68
2018-10-21T07:08:53.652Z,6.72
2018-10-21T07:11:22.643Z,6.76
2018-10-21T07:13:51.851Z,6.77
2018-10-21T07:16:21.004Z,6.75
2018-10-21T07:18:50.534Z,6.78
2018-10-21T07:21:19.847Z,6.78
2018-10-21T07:23:49.088Z,6.77
2018-10-21T07:26:18.081Z,6.78
2018-10-21T07:28:47.028Z,6.78
2018-10-21T07:31:16.063Z,6.80
2018-10-21T07:33:45.339Z,6.85
2018-10-21T07:36:15.590Z,6.89
2018-10-21T07:38:44.492Z,6.93
2018-10-21T07:41:13.458Z,6.95
2018-10-21T07:43:43.466Z,6.99
2018-10-21T07:46:12.262Z,7.03
2018-10-21T07:48:41.397Z,7.09
2018-10-21T07:51:10.697Z,7.12
2018-10-21T07:53:39.591Z,7.13
2018-10-21T07:56:08.743Z,7.14
2018-10-21T07:58:37.529Z,7.17
2018-10-21T08:01:06.822Z,7.22
2018-10-21T08:03:35.955Z,7.25
2018-10-21T08:06:25.941Z,7.32
2018-10-21T08:08:55.035Z,7.33
2018-10-21T08:11:23.993Z,7.41
2018-10-21T08:13:52.776Z,7.42
2018-10-21T08:16:22.246Z,7.43
2018-10-21T08:18:51.940Z,7.40
2018-10-21T08:21:21.221Z,7.45
2018-10-21T08:23:50.119Z,7.43
2018-10-21T08:26:19.427Z,7.45
2018-10-21T08:28:48.526Z,7.44
2018-10-21T08:31:17.715Z,7.45
2018-10-21T08:33:47.122Z,7.52
2018-10-21T08:36:16.159Z,7.62
2018-10-21T08:38:45.216Z,7.71
2018-10-21T08:41:14.300Z,7.75
2018-10-21T08:43:43.540Z,7.78
2018-10-21T08:46:12.673Z,7.95
2018-10-21T08:48:41.618Z,7.30
2018-10-21T08:51:10.840Z,8.51
2018-10-21T08:53:39.779Z,8.58
2018-10-21T08:56:08.452Z,8.57
2018-10-21T08:58:37.410Z,8.55
2018-10-21T09:01:06.242Z,8.48
2018-10-21T09:03:35.356Z,8.32
2018-10-21T09:06:04.555Z,8.22
2018-10-21T09:08:33.645Z,8.14
2018-10-21T09:11:02.908Z,8.19
2018-10-21T09:13:32.056Z,8.30
2018-10-21T09:16:00.945Z,8.30
2018-10-21T09:18:29.667Z,8.33
2018-10-21T09:20:58.605Z,8.34
2018-10-21T09:23:27.747Z,8.32
2018-10-21T09:25:56.680Z,8.24
2018-10-21T09:28:25.443Z,8.17
2018-10-21T09:30:54.308Z,8.13
2018-10-21T09:33:23.447Z,8.11
2018-10-21T09:35:52.594Z,8.01
2018-10-21T09:38:21.757Z,7.98
2018-10-21T09:40:50.721Z,7.92
2018-10-21T09:43:19.668Z,7.83
2018-10-21T09:45:48.787Z,7.90
2018-10-21T09:48:17.809Z,7.89
2018-10-21T09:50:46.793Z,7.89
2018-10-21T09:53:15.822Z,7.89
2018-10-21T09:55:45.097Z,7.94
2018-10-21T09:58:14.098Z,7.98
2018-10-21T10:01:48.911Z,8.05
2018-10-21T10:04:18.084Z,8.14
2018-10-21T10:06:47.132Z,8.17
2018-10-21T10:09:15.856Z,8.15
2018-10-21T10:11:45.301Z,8.27
2018-10-21T10:14:14.285Z,8.40
2018-10-21T10:16:43.351Z,8.51
2018-10-21T10:19:12.161Z,8.52
2018-10-21T10:21:41.002Z,8.62
2018-10-21T10:24:09.787Z,8.70
2018-10-21T10:26:39.115Z,8.75
2018-10-21T10:29:08.182Z,8.70
2018-10-21T10:31:37.216Z,8.70
2018-10-21T10:34:06.269Z,8.67
2018-10-21T10:36:35.002Z,8.63
2018-10-21T10:39:04.001Z,8.62
2018-10-21T10:41:33.114Z,8.57
2018-10-21T10:44:02.103Z,8.55
2018-10-21T10:46:31.127Z,8.53
2018-10-21T10:49:00.508Z,8.51
2018-10-21T10:51:29.376Z,8.46
2018-10-21T10:53:58.154Z,8.40
2018-10-21T10:56:27.528Z,8.52
2018-10-21T10:58:56.263Z,8.53
2018-10-21T11:01:25.014Z,8.62
2018-10-21T11:03:54.265Z,8.73
2018-10-21T11:06:23.048Z,8.77
2018-10-21T11:08:51.762Z,8.75
2018-10-21T11:11:20.814Z,8.71
2018-10-21T11:13:49.611Z,8.83
2018-10-21T11:16:18.567Z,8.98
2018-10-21T11:18:47.472Z,9.04
2018-10-21T11:21:16.442Z,9.01
2018-10-21T11:23:46.146Z,8.93
2018-10-21T11:26:14.969Z,8.98
2018-10-21T11:28:43.702Z,8.90
2018-10-21T11:31:12.576Z,8.79
2018-10-21T11:33:41.259Z,8.75
2018-10-21T11:36:10.210Z,8.75
2018-10-21T11:38:39.176Z,8.77
2018-10-21T11:41:07.942Z,8.78
2018-10-21T11:43:36.932Z,8.74
2018-10-21T11:46:06.253Z,8.73
2018-10-21T11:48:35.062Z,8.82
2018-10-21T11:51:03.894Z,8.84
2018-10-21T11:53:32.741Z,8.86
2018-10-21T11:56:01.643Z,8.87
2018-10-21T11:58:30.364Z,8.89
2018-10-21T12:00:59.452Z,8.83
2018-10-21T12:03:28.286Z,8.91
2018-10-21T12:05:57.092Z,8.90
2018-10-21T12:08:26.266Z,8.98
2018-10-21T12:10:54.952Z,8.93
2018-10-21T12:13:23.878Z,8.92
2018-10-21T12:15:52.942Z,8.33
2018-10-21T12:18:22.600Z,8.98
2018-10-21T12:20:51.603Z,8.96
2018-10-21T12:23:20.881Z,8.94
2018-10-21T12:25:49.708Z,8.90
2018-10-21T12:28:18.944Z,8.94
2018-10-21T12:30:47.862Z,8.94
2018-10-21T12:33:16.815Z,8.94
2018-10-21T12:35:45.913Z,8.91
2018-10-21T12:38:14.741Z,8.88
2018-10-21T12:40:43.559Z,8.87
2018-10-21T12:43:12.709Z,8.82
2018-10-21T12:45:41.716Z,8.80
2018-10-21T12:48:10.510Z,8.80
2018-10-21T12:50:39.268Z,8.83
2018-10-21T12:53:08.496Z,8.83
2018-10-21T12:55:42.954Z,8.79
2018-10-21T12:58:11.963Z,8.80
2018-10-21T13:00:41.233Z,8.78
2018-10-21T13:03:10.398Z,8.80
2018-10-21T13:05:39.255Z,8.78
2018-10-21T13:08:08.224Z,8.81
2018-10-21T13:10:36.936Z,8.84
2018-10-21T13:13:06.392Z,8.85
2018-10-21T13:15:35.597Z,8.81
2018-10-21T13:18:05.135Z,8.80
2018-10-21T13:20:34.383Z,8.78
2018-10-21T13:23:03.213Z,8.78
2018-10-21T13:25:32.349Z,8.78
2018-10-21T13:28:01.494Z,8.80
2018-10-21T13:30:30.589Z,8.80
2018-10-21T13:32:59.762Z,8.74
2018-10-21T13:35:28.668Z,8.74
2018-10-21T13:37:57.717Z,8.77
2018-10-21T13:40:27.039Z,8.75
2018-10-21T13:42:55.899Z,8.71
2018-10-21T13:45:24.740Z,8.72
2018-10-21T13:47:53.828Z,8.72
2018-10-21T13:50:23.333Z,8.72
2018-10-21T13:52:52.498Z,8.68
2018-10-21T13:55:21.746Z,8.71
2018-10-21T13:57:50.813Z,8.73
2018-10-21T14:00:19.592Z,8.71
2018-10-21T14:02:48.546Z,8.71
2018-10-21T14:05:17.610Z,8.70
2018-10-21T14:07:46.566Z,8.69
2018-10-21T14:10:15.759Z,8.71
2018-10-21T14:12:45.233Z,8.68
2018-10-21T14:15:14.196Z,8.65
2018-10-21T14:17:43.023Z,8.67
2018-10-21T14:20:12.677Z,8.83
2018-10-21T14:22:41.738Z,8.81
2018-10-21T14:25:10.773Z,8.75
2018-10-21T14:27:39.735Z,8.69
2018-10-21T14:30:10.372Z,8.68
2018-10-21T14:32:39.611Z,8.70
2018-10-21T14:35:09.774Z,8.71
2018-10-21T14:37:38.845Z,8.70
2018-10-21T14:40:10.486Z,8.69
2018-10-21T14:42:39.285Z,8.70
2018-10-21T14:45:09.467Z,8.67
2018-10-21T14:47:38.838Z,8.69
2018-10-21T14:50:08.423Z,8.67
2018-10-21T14:52:38.025Z,8.63
2018-10-21T14:55:08.384Z,8.61
2018-10-21T14:57:37.289Z,8.62
2018-10-21T15:00:08.150Z,8.63
2018-10-21T15:02:37.061Z,8.59
2018-10-21T15:05:08.300Z,8.59
2018-10-21T15:07:37.190Z,8.58
2018-10-21T15:10:07.175Z,8.58
2018-10-21T15:12:36.090Z,8.59
2018-10-21T15:15:05.338Z,8.58
2018-10-21T15:17:34.101Z,8.58
2018-10-21T15:20:02.823Z,8.59
2018-10-21T15:22:31.890Z,8.60
2018-10-21T15:25:00.944Z,8.62
2018-10-21T15:27:29.709Z,8.63
2018-10-21T15:29:58.658Z,8.62
2018-10-21T15:32:27.542Z,8.62
2018-10-21T15:34:56.277Z,8.64
2018-10-21T15:37:25.000Z,8.66
2018-10-21T15:39:53.934Z,8.67
2018-10-21T15:42:22.785Z,8.66
2018-10-21T15:44:51.505Z,8.66
2018-10-21T15:47:20.328Z,8.65
2018-10-21T15:49:49.551Z,8.64
2018-10-21T15:52:18.387Z,8.64
2018-10-21T15:54:47.373Z,8.65
2018-10-21T15:57:16.368Z,8.64
2018-10-21T15:59:45.531Z,8.65
2018-10-21T16:02:15.387Z,8.68
2018-10-21T16:04:44.057Z,8.65
2018-10-21T16:07:13.564Z,8.65
2018-10-21T16:09:43.184Z,8.66
2018-10-21T16:12:12.505Z,8.65
2018-10-21T16:14:41.244Z,8.65
2018-10-21T16:17:10.236Z,8.63
2018-10-21T16:19:39.169Z,8.62
2018-10-21T16:22:08.056Z,8.62
2018-10-21T16:24:51.444Z,8.62
2018-10-21T16:27:20.212Z,8.63
2018-10-21T16:29:49.198Z,8.61
2018-10-21T16:32:19.359Z,8.57
2018-10-21T16:34:48.133Z,8.58
2018-10-21T16:37:17.432Z,8.57
2018-10-21T16:39:46.892Z,8.55
2018-10-21T16:42:15.798Z,8.52
2018-10-21T16:44:44.993Z,8.50
2018-10-21T16:47:14.001Z,8.50
2018-10-21T16:49:42.865Z,8.50
2018-10-21T16:52:11.806Z,8.51
2018-10-21T16:54:40.632Z,8.51
2018-10-21T16:57:10.140Z,8.50
2018-10-21T16:59:39.898Z,8.53
2018-10-21T17:02:09.425Z,8.54
2018-10-21T17:04:38.798Z,8.54
2018-10-21T17:07:09.279Z,8.53
2018-10-21T17:09:41.606Z,8.51
2018-10-21T17:12:10.569Z,8.47
2018-10-21T17:14:39.650Z,8.43
2018-10-21T17:17:08.863Z,8.39
2018-10-21T17:19:38.116Z,8.39
2018-10-21T17:22:07.022Z,8.40
2018-10-21T17:24:35.769Z,8.39
2018-10-21T17:27:04.544Z,8.38
2018-10-21T17:29:33.424Z,8.39
2018-10-21T17:32:02.996Z,8.37
2018-10-21T17:34:32.217Z,8.41
2018-10-21T17:37:01.799Z,8.40
2018-10-21T17:39:31.174Z,8.40
2018-10-21T17:42:00.115Z,8.41
2018-10-21T17:44:29.219Z,8.40
2018-10-21T17:46:58.206Z,8.43
2018-10-21T17:49:27.406Z,8.44
2018-10-21T17:51:56.659Z,8.43
2018-10-21T17:54:25.725Z,8.41
2018-10-21T17:56:58.512Z,8.41
2018-10-21T17:59:28.661Z,8.40
2018-10-21T18:01:58.409Z,8.42
2018-10-21T18:04:28.336Z,8.41
2018-10-21T18:06:58.159Z,8.41
2018-10-21T18:09:27.358Z,8.41
2018-10-21T18:11:56.525Z,8.45
2018-10-21T18:14:26.013Z,8.49
2018-10-21T18:16:55.583Z,8.48
2018-10-21T18:19:24.737Z,8.48
2018-10-21T18:21:54.153Z,8.50
2018-10-21T18:24:23.405Z,8.48
2018-10-21T18:26:52.642Z,8.50
2018-10-21T18:29:21.839Z,8.51
2018-10-21T18:31:51.290Z,8.50
2018-10-21T18:34:20.611Z,8.48
2018-10-21T18:36:50.143Z,8.47
2018-10-21T18:39:20.414Z,8.46
2018-10-21T18:41:50.411Z,8.46
2018-10-21T18:44:19.538Z,8.43
2018-10-21T18:46:48.854Z,8.43
2018-10-21T18:49:18.370Z,8.41
2018-10-21T18:51:47.784Z,8.40
2018-10-21T18:54:17.133Z,8.38
2018-10-21T18:56:46.285Z,8.41
2018-10-21T18:59:15.536Z,8.39
2018-10-21T19:01:44.651Z,8.40
2018-10-21T19:04:14.059Z,8.41
2018-10-21T19:06:43.240Z,8.41
2018-10-21T19:09:13.563Z,8.39
2018-10-21T19:11:42.920Z,8.38
2018-10-21T19:14:12.215Z,8.38
2018-10-21T19:16:41.521Z,8.39
2018-10-21T19:19:11.826Z,8.41
2018-10-21T19:21:41.095Z,8.43
2018-10-21T19:24:10.360Z,8.41
2018-10-21T19:26:39.978Z,8.44
2018-10-21T19:29:09.726Z,8.44
2018-10-21T19:31:39.045Z,8.43
2018-10-21T19:34:08.386Z,8.41
2018-10-21T19:36:37.710Z,8.42
2018-10-21T19:39:10.789Z,8.41
2018-10-21T19:41:40.026Z,8.41
2018-10-21T19:44:10.358Z,8.42
2018-10-21T19:46:40.297Z,8.39
2018-10-21T19:49:10.116Z,8.34
2018-10-21T19:51:39.317Z,8.35
2018-10-21T19:54:08.630Z,8.39
2018-10-21T19:56:38.037Z,8.38
2018-10-21T19:59:07.449Z,8.38
2018-10-21T20:01:36.489Z,8.35
2018-10-21T20:04:05.463Z,8.33
2018-10-21T20:06:34.255Z,8.33
2018-10-21T20:09:03.260Z,8.32
2018-10-21T20:11:32.165Z,8.35
2018-10-21T20:14:00.821Z,8.38
2018-10-21T20:16:29.625Z,8.35
2018-10-21T20:18:58.478Z,8.35
2018-10-21T20:21:27.255Z,8.38
2018-10-21T20:23:57.137Z,8.36
2018-10-21T20:26:25.921Z,8.35
2018-10-21T20:28:54.670Z,8.35
2018-10-21T20:31:23.440Z,8.36
2018-10-21T20:33:52.462Z,8.32
2018-10-21T20:36:21.395Z,8.32
2018-10-21T20:38:50.185Z,8.32
2018-10-21T20:41:19.238Z,8.31
2018-10-21T20:43:48.001Z,8.30
2018-10-21T20:46:16.803Z,8.31
2018-10-21T20:48:46.096Z,8.30
2018-10-21T20:51:15.957Z,8.28
2018-10-21T20:53:44.672Z,8.29
2018-10-21T20:56:13.457Z,8.29
2018-10-21T20:58:42.201Z,8.31
2018-10-21T21:01:11.063Z,8.34
2018-10-21T21:03:39.709Z,8.34
2018-10-21T21:06:08.608Z,8.38
2018-10-21T21:08:37.299Z,8.38
2018-10-21T21:11:06.366Z,8.24
2018-10-21T21:13:35.189Z,8.39
2018-10-21T21:16:03.957Z,8.38
2018-10-21T21:18:32.758Z,8.40
2018-10-21T21:21:01.925Z,8.40
2018-10-21T21:23:31.096Z,8.35
2018-10-21T21:25:59.983Z,8.35
2018-10-21T21:28:29.146Z,8.35
2018-10-21T21:30:57.983Z,8.30
2018-10-21T21:33:27.072Z,8.31
2018-10-21T21:35:56.110Z,8.30
2018-10-21T21:38:25.004Z,8.29
2018-10-21T21:40:53.902Z,8.27
2018-10-21T21:43:23.087Z,8.26
2018-10-21T21:45:52.217Z,8.26
2018-10-21T21:48:21.151Z,8.27
2018-10-21T21:50:50.005Z,8.31
2018-10-21T21:53:18.812Z,8.33
2018-10-21T21:55:47.827Z,8.33
2018-10-21T21:58:16.864Z,8.34
2018-10-21T22:00:45.558Z,8.38
2018-10-21T22:03:14.549Z,8.41
2018-10-21T22:05:43.249Z,8.44
2018-10-21T22:08:12.130Z,8.47
2018-10-21T22:10:40.758Z,8.47
2018-10-21T22:13:09.598Z,8.50
2018-10-21T22:15:38.385Z,8.50
2018-10-21T22:18:07.169Z,8.48
2018-10-21T22:20:36.127Z,8.46
2018-10-21T22:23:05.235Z,8.45
2018-10-21T22:25:34.017Z,8.45
2018-10-21T22:28:03.005Z,8.44
2018-10-21T22:30:31.925Z,8.41
2018-10-21T22:33:00.626Z,8.40
2018-10-21T22:35:29.479Z,8.38
2018-10-21T22:37:58.327Z,8.38
2018-10-21T22:40:27.414Z,8.37
2018-10-21T22:42:56.211Z,8.33
2018-10-21T22:45:25.132Z,8.32
2018-10-21T22:47:54.136Z,8.30
2018-10-21T22:50:23.297Z,8.28
2018-10-21T22:52:52.510Z,8.26
2018-10-21T22:55:21.533Z,8.25
2018-10-21T22:57:50.468Z,8.23
2018-10-21T23:00:19.529Z,8.18
2018-10-21T23:02:53.770Z,8.13
2018-10-21T23:05:23.349Z,8.11
2018-10-21T23:07:52.345Z,8.08
2018-10-21T23:10:21.322Z,8.04
2018-10-21T23:12:50.160Z,8.00
2018-10-21T23:15:18.926Z,7.99
2018-10-21T23:17:47.627Z,7.98
2018-10-21T23:20:16.541Z,7.98
2018-10-21T23:22:45.242Z,7.93
2018-10-21T23:25:14.272Z,7.92
2018-10-21T23:27:43.224Z,7.89
2018-10-21T23:30:12.383Z,7.88
2018-10-21T23:32:41.416Z,7.85
2018-10-21T23:35:10.262Z,7.83
2018-10-21T23:37:39.235Z,7.80
2018-10-21T23:40:08.636Z,7.80
2018-10-21T23:42:37.499Z,7.80
2018-10-21T23:45:06.657Z,7.79
2018-10-21T23:47:35.798Z,7.76
2018-10-21T23:50:04.952Z,7.74
2018-10-21T23:52:34.298Z,7.73
2018-10-21T23:55:03.353Z,7.72
2018-10-21T23:57:32.547Z,7.71
